KDUC/DUC METAR and TAF weather

Enter ICAO airport designator
Station Type Date Time Source
KDUC METAR 2020/12/05 05:55 UTC NOAA

KDUC 050555Z AUTO 26003KT 10SM CLR 02/M04 A3025 RMK AO2 T00221036 10100 20003


Station Type Date Time Source
KDUC Decoded METAR 2020/12/05 05:55 UTC NOAA

Duncan, Halliburton Field Airport, OK, United States (KDUC) 34-28-15N 097-57-36W
Dec 05, 2020 - 12:55 AM EST / 2020.12.05 0555 UTC
Wind: from the W (260 degrees) at 3 MPH (3 KT):0
Visibility: 10 mile(s):0
Sky conditions: clear
Temperature: 36.0 F (2.2 C)
Dew Point: 25.5 F (-3.6 C)
Relative Humidity: 65%
Pressure (altimeter): 30.25 in. Hg (1024 hPa)
ob: KDUC 050555Z AUTO 26003KT 10SM CLR 02/M04 A3025 RMK AO2 T00221036 10100 20003
cycle: 6

Station Type Date Time Source
KDUC TAF UTC NOAA

Error!

Example: see airport list